createdAt,value
2023-04-09T00:02:01.626Z,99.90
2023-04-09T00:07:03.529Z,99.90
2023-04-09T00:12:05.855Z,99.90
2023-04-09T00:17:07.916Z,99.90
2023-04-09T00:22:09.800Z,99.90
2023-04-09T00:27:11.709Z,99.90
2023-04-09T00:32:13.791Z,99.90
2023-04-09T00:37:15.646Z,99.90
2023-04-09T00:42:18.025Z,99.90
2023-04-09T00:47:19.906Z,99.90
2023-04-09T00:52:21.917Z,99.90
2023-04-09T00:57:23.759Z,99.90
2023-04-09T01:02:26.557Z,99.90
2023-04-09T01:07:34.327Z,99.90
2023-04-09T01:12:36.086Z,99.90
2023-04-09T01:17:37.913Z,99.90
2023-04-09T01:22:45.544Z,99.90
2023-04-09T01:28:16.869Z,99.90
2023-04-09T01:33:20.483Z,99.90
2023-04-09T01:38:23.285Z,99.90
2023-04-09T01:43:26.400Z,99.90
2023-04-09T01:48:29.566Z,99.90
2023-04-09T01:53:31.423Z,99.90
2023-04-09T01:58:34.273Z,99.90
2023-04-09T02:03:41.269Z,99.90
2023-04-09T02:08:47.769Z,99.90
2023-04-09T02:13:50.279Z,99.90
2023-04-09T02:19:01.254Z,99.90
2023-04-09T02:24:03.204Z,99.90
2023-04-09T02:29:05.187Z,99.90
2023-04-09T02:34:07.100Z,99.90
2023-04-09T02:39:08.950Z,99.90
2023-04-09T02:44:11.192Z,99.90
2023-04-09T02:49:13.041Z,99.90
2023-04-09T02:54:14.963Z,99.90
2023-04-09T02:59:16.799Z,99.90
2023-04-09T03:04:18.739Z,99.90
2023-04-09T03:09:20.736Z,99.90
2023-04-09T03:14:22.875Z,99.90
2023-04-09T03:19:24.783Z,99.90
2023-04-09T03:24:26.635Z,99.90
2023-04-09T03:29:28.469Z,99.90
2023-04-09T03:34:30.474Z,99.90
2023-04-09T03:39:32.365Z,99.90
2023-04-09T03:44:34.380Z,99.90
2023-04-09T03:49:36.318Z,99.90
2023-04-09T03:54:38.141Z,99.90
2023-04-09T03:59:40.089Z,99.90
2023-04-09T04:04:41.927Z,99.90
2023-04-09T04:09:43.804Z,99.90
2023-04-09T04:14:45.718Z,99.90
2023-04-09T04:19:47.555Z,99.90
2023-04-09T04:24:49.454Z,99.90
2023-04-09T04:29:51.389Z,99.90
2023-04-09T04:34:53.300Z,99.90
2023-04-09T04:39:55.160Z,99.90
2023-04-09T04:44:57.365Z,99.90
2023-04-09T04:49:59.737Z,99.90
2023-04-09T04:55:01.565Z,99.90
2023-04-09T05:00:03.726Z,99.90
2023-04-09T05:05:05.956Z,99.90
2023-04-09T05:10:08.645Z,99.90
2023-04-09T05:15:10.567Z,99.90
2023-04-09T05:20:12.823Z,99.90
2023-04-09T05:25:16.223Z,99.90
2023-04-09T05:30:18.353Z,99.90
2023-04-09T05:35:20.417Z,99.90
2023-04-09T05:40:22.376Z,99.90
2023-04-09T05:45:24.424Z,99.90
2023-04-09T05:50:26.475Z,99.90
2023-04-09T05:55:28.367Z,99.90
2023-04-09T06:00:30.226Z,99.90
2023-04-09T06:05:32.140Z,99.90
2023-04-09T06:10:34.337Z,99.90
2023-04-09T06:15:38.275Z,99.90
2023-04-09T06:20:40.263Z,99.90
2023-04-09T06:25:43.136Z,99.90
2023-04-09T06:30:45.174Z,99.90
2023-04-09T06:35:47.066Z,99.90
2023-04-09T06:40:48.906Z,99.90
2023-04-09T06:45:51.445Z,99.90
2023-04-09T06:50:53.326Z,99.90
2023-04-09T06:55:57.038Z,99.90
2023-04-09T07:01:00.034Z,99.90
2023-04-09T07:06:02.134Z,99.90
2023-04-09T07:11:04.013Z,99.90
2023-04-09T07:16:06.033Z,99.90
2023-04-09T07:21:07.925Z,99.90
2023-04-09T07:26:10.428Z,99.90
2023-04-09T07:31:13.050Z,99.90
2023-04-09T07:36:14.944Z,99.90
2023-04-09T07:41:16.847Z,99.90
2023-04-09T07:46:20.831Z,99.90
2023-04-09T07:51:22.677Z,99.90
2023-04-09T07:56:24.533Z,99.90
2023-04-09T08:01:26.628Z,99.90
2023-04-09T08:06:28.458Z,99.90
2023-04-09T08:11:30.534Z,99.90
2023-04-09T08:16:32.464Z,99.90
2023-04-09T08:21:34.726Z,99.90
2023-04-09T08:26:36.767Z,99.90
2023-04-09T08:31:39.269Z,99.90
2023-04-09T08:36:41.253Z,99.90
2023-04-09T08:41:46.305Z,99.90
2023-04-09T08:46:48.132Z,99.90
2023-04-09T08:51:49.989Z,99.90
2023-04-09T08:56:51.856Z,99.90
2023-04-09T09:02:10.483Z,99.90
2023-04-09T09:07:12.558Z,99.90
2023-04-09T09:12:32.747Z,99.90
2023-04-09T09:17:34.797Z,99.90
2023-04-09T09:22:54.895Z,99.90
2023-04-09T09:28:08.183Z,99.90
2023-04-09T09:33:11.210Z,99.90
2023-04-09T09:38:13.117Z,99.80
2023-04-09T09:43:15.005Z,98.90
2023-04-09T09:48:16.946Z,97.90
2023-04-09T09:53:23.075Z,97.80
2023-04-09T09:58:41.686Z,97.50
2023-04-09T10:03:44.176Z,96.60
2023-04-09T10:08:49.377Z,95.50
2023-04-09T10:13:56.016Z,96.40
2023-04-09T10:18:59.131Z,95.90
2023-04-09T10:24:05.715Z,95.00
2023-04-09T10:29:14.628Z,95.20
2023-04-09T10:34:22.411Z,94.10
2023-04-09T10:39:29.691Z,95.00
2023-04-09T10:44:36.057Z,93.30
2023-04-09T10:49:39.686Z,92.60
2023-04-09T10:54:46.542Z,92.10
2023-04-09T10:59:53.202Z,90.00
2023-04-09T11:05:19.885Z,89.60
2023-04-09T11:10:21.974Z,86.80
2023-04-09T11:15:23.950Z,86.70
2023-04-09T11:20:26.530Z,84.70
2023-04-09T11:25:31.230Z,85.20
2023-04-09T11:30:34.483Z,78.70
2023-04-09T11:35:36.734Z,78.90
2023-04-09T11:40:48.025Z,79.60
2023-04-09T11:45:50.414Z,79.50
2023-04-09T11:50:52.688Z,79.90
2023-04-09T11:55:54.529Z,80.20
2023-04-09T12:00:58.865Z,81.70
2023-04-09T12:06:02.842Z,83.50
2023-04-09T12:11:10.137Z,83.60
2023-04-09T12:16:13.118Z,82.90
2023-04-09T12:21:19.173Z,82.40
2023-04-09T12:26:21.620Z,82.20
2023-04-09T12:31:23.677Z,82.00
2023-04-09T12:36:26.686Z,83.00
2023-04-09T12:41:28.568Z,82.30
2023-04-09T12:46:32.511Z,79.90
2023-04-09T12:51:35.005Z,81.50
2023-04-09T12:56:36.843Z,81.00
2023-04-09T13:06:40.672Z,80.90
2023-04-09T13:11:42.496Z,80.90
2023-04-09T13:16:44.331Z,80.20
2023-04-09T13:21:46.188Z,77.40
2023-04-09T13:26:48.060Z,78.20
2023-04-09T13:31:50.006Z,79.10
2023-04-09T13:36:52.015Z,77.80
2023-04-09T13:41:55.325Z,75.20
2023-04-09T13:46:57.145Z,74.50
2023-04-09T13:51:59.490Z,76.20
2023-04-09T13:57:01.734Z,74.60
2023-04-09T14:02:04.366Z,75.20
2023-04-09T14:07:06.322Z,77.00
2023-04-09T14:12:08.159Z,75.60
2023-04-09T14:17:09.991Z,74.60
2023-04-09T14:22:12.522Z,76.90
2023-04-09T14:27:16.663Z,77.80
2023-04-09T14:32:19.220Z,77.30
2023-04-09T14:37:22.213Z,77.60
2023-04-09T14:42:24.133Z,76.90
2023-04-09T14:47:26.091Z,78.80
2023-04-09T14:52:30.454Z,78.40
2023-04-09T14:57:32.632Z,79.40
2023-04-09T15:02:38.652Z,79.90
2023-04-09T15:07:40.700Z,80.30
2023-04-09T15:12:42.542Z,79.80
2023-04-09T15:17:44.554Z,80.00
2023-04-09T15:22:46.434Z,76.50
2023-04-09T15:27:48.297Z,77.90
2023-04-09T15:32:50.506Z,77.20
2023-04-09T15:37:52.568Z,78.90
2023-04-09T15:42:55.040Z,77.90
2023-04-09T15:47:57.068Z,78.80
2023-04-09T15:52:59.094Z,80.00
2023-04-09T15:58:00.913Z,79.00
2023-04-09T16:03:02.763Z,79.70
2023-04-09T16:08:04.722Z,80.60
2023-04-09T16:13:06.570Z,80.80
2023-04-09T16:18:10.136Z,82.10
2023-04-09T16:23:12.244Z,82.70
2023-04-09T16:28:15.447Z,84.30
2023-04-09T16:33:18.645Z,84.30
2023-04-09T16:38:20.744Z,84.90
2023-04-09T16:43:22.660Z,85.70
2023-04-09T16:48:25.652Z,85.70
2023-04-09T16:53:27.902Z,86.70
2023-04-09T16:58:30.312Z,88.20
2023-04-09T17:03:35.317Z,87.70
2023-04-09T17:08:37.225Z,88.50
2023-04-09T17:13:39.174Z,90.10
2023-04-09T17:18:43.218Z,89.80
2023-04-09T17:23:45.725Z,89.60
2023-04-09T17:28:50.776Z,90.10
2023-04-09T17:33:55.254Z,90.50
2023-04-09T17:38:57.207Z,91.10
2023-04-09T17:43:59.134Z,91.50
2023-04-09T17:49:01.078Z,92.50
2023-04-09T17:54:03.302Z,93.10
2023-04-09T17:59:05.389Z,93.80
2023-04-09T18:04:07.542Z,93.80
2023-04-09T18:09:09.593Z,94.20
2023-04-09T18:14:11.727Z,94.10
2023-04-09T18:19:14.916Z,94.20
2023-04-09T18:24:16.746Z,94.60
2023-04-09T18:29:18.616Z,94.30
2023-04-09T18:34:22.255Z,94.90
2023-04-09T18:39:24.474Z,95.60
2023-04-09T18:44:27.594Z,95.70
2023-04-09T18:49:29.421Z,96.20
2023-04-09T18:54:34.834Z,96.80
2023-04-09T18:59:36.684Z,97.60
2023-04-09T19:04:40.177Z,97.70
2023-04-09T19:09:43.490Z,99.20
2023-04-09T19:14:45.454Z,99.90
2023-04-09T19:19:47.575Z,99.90
2023-04-09T19:24:49.549Z,99.90
2023-04-09T19:29:51.516Z,99.90
2023-04-09T19:35:02.908Z,99.90
2023-04-09T19:40:05.617Z,99.90
2023-04-09T19:45:08.057Z,99.90
2023-04-09T19:50:11.403Z,99.90
2023-04-09T19:55:13.256Z,99.90
2023-04-09T20:00:15.340Z,99.90
2023-04-09T20:05:20.896Z,99.90
2023-04-09T20:10:22.799Z,99.90
2023-04-09T20:15:24.873Z,99.90
2023-04-09T20:20:27.234Z,99.90
2023-04-09T20:25:34.375Z,99.90
2023-04-09T20:30:36.895Z,99.90
2023-04-09T20:35:39.801Z,99.90
2023-04-09T20:40:41.963Z,99.90
2023-04-09T20:45:43.922Z,99.90
2023-04-09T20:50:45.781Z,99.90
2023-04-09T20:55:50.595Z,99.90
2023-04-09T21:00:52.460Z,99.90
2023-04-09T21:05:54.347Z,99.90
2023-04-09T21:10:56.452Z,99.90
2023-04-09T21:15:58.335Z,99.90
2023-04-09T21:21:02.258Z,99.90
2023-04-09T21:26:06.271Z,99.90
2023-04-09T21:31:10.598Z,99.90
2023-04-09T21:36:12.925Z,99.90
2023-04-09T21:41:14.952Z,99.90
2023-04-09T21:46:16.894Z,99.90
2023-04-09T21:51:18.858Z,99.90
2023-04-09T21:56:20.675Z,99.90
2023-04-09T22:01:29.118Z,99.90
2023-04-09T22:06:32.294Z,99.90
2023-04-09T22:11:34.458Z,99.90
2023-04-09T22:16:36.368Z,99.90
2023-04-09T22:21:38.245Z,99.90
2023-04-09T22:26:42.681Z,99.90
2023-04-09T22:31:45.130Z,99.90
2023-04-09T22:36:47.093Z,99.90
2023-04-09T22:41:49.210Z,99.90
2023-04-09T22:46:51.210Z,99.90
2023-04-09T22:51:53.485Z,99.90
2023-04-09T22:56:56.763Z,99.90
2023-04-09T23:01:58.714Z,99.90
2023-04-09T23:07:00.747Z,99.90
2023-04-09T23:12:02.847Z,99.90
2023-04-09T23:17:04.705Z,99.90
2023-04-09T23:22:06.946Z,99.90
2023-04-09T23:27:08.768Z,99.90
2023-04-09T23:32:10.688Z,99.90
2023-04-09T23:37:12.564Z,99.90
2023-04-09T23:42:14.679Z,99.90
2023-04-09T23:47:19.077Z,99.90
2023-04-09T23:52:20.903Z,99.90
2023-04-09T23:57:22.822Z,99.90
